sensor_id;sensor_type;location;lat;lon;timestamp;temperature;humidity
12704;DHT22;6416;52.182;7.650;2023-07-02T00:01:50;20.00;75.30
12704;DHT22;6416;52.182;7.650;2023-07-02T00:04:16;20.00;76.20
12704;DHT22;6416;52.182;7.650;2023-07-02T00:06:48;19.90;75.30
12704;DHT22;6416;52.182;7.650;2023-07-02T00:09:14;20.00;75.60
12704;DHT22;6416;52.182;7.650;2023-07-02T00:11:42;19.90;75.40
12704;DHT22;6416;52.182;7.650;2023-07-02T00:14:09;19.90;75.30
12704;DHT22;6416;52.182;7.650;2023-07-02T00:16:52;19.90;75.30
12704;DHT22;6416;52.182;7.650;2023-07-02T00:19:18;19.90;75.40
12704;DHT22;6416;52.182;7.650;2023-07-02T00:21:43;19.90;75.20
12704;DHT22;6416;52.182;7.650;2023-07-02T00:24:09;19.90;75.20
12704;DHT22;6416;52.182;7.650;2023-07-02T00:26:35;19.90;75.30
12704;DHT22;6416;52.182;7.650;2023-07-02T00:29:00;19.80;75.30
12704;DHT22;6416;52.182;7.650;2023-07-02T00:31:26;19.80;75.30
12704;DHT22;6416;52.182;7.650;2023-07-02T00:33:52;19.80;75.60
12704;DHT22;6416;52.182;7.650;2023-07-02T00:36:17;19.70;75.60
12704;DHT22;6416;52.182;7.650;2023-07-02T00:38:47;19.70;75.70
12704;DHT22;6416;52.182;7.650;2023-07-02T00:41:13;19.70;75.90
12704;DHT22;6416;52.182;7.650;2023-07-02T00:43:39;19.70;75.80
12704;DHT22;6416;52.182;7.650;2023-07-02T00:46:04;19.70;75.90
12704;DHT22;6416;52.182;7.650;2023-07-02T00:48:30;19.70;76.00
12704;DHT22;6416;52.182;7.650;2023-07-02T00:50:57;19.70;76.10
12704;DHT22;6416;52.182;7.650;2023-07-02T00:53:22;19.70;76.00
12704;DHT22;6416;52.182;7.650;2023-07-02T00:55:48;19.70;76.00
12704;DHT22;6416;52.182;7.650;2023-07-02T00:58:13;19.70;76.10
12704;DHT22;6416;52.182;7.650;2023-07-02T01:00:39;19.70;76.10
12704;DHT22;6416;52.182;7.650;2023-07-02T01:03:04;19.70;76.20
12704;DHT22;6416;52.182;7.650;2023-07-02T01:05:30;19.70;76.10
12704;DHT22;6416;52.182;7.650;2023-07-02T01:07:55;19.70;76.10
12704;DHT22;6416;52.182;7.650;2023-07-02T01:10:21;19.70;76.10
12704;DHT22;6416;52.182;7.650;2023-07-02T01:12:47;19.70;76.20
12704;DHT22;6416;52.182;7.650;2023-07-02T01:15:13;19.70;76.10
12704;DHT22;6416;52.182;7.650;2023-07-02T01:17:39;19.60;75.90
12704;DHT22;6416;52.182;7.650;2023-07-02T01:20:06;19.60;76.00
12704;DHT22;6416;52.182;7.650;2023-07-02T01:22:32;19.60;76.10
12704;DHT22;6416;52.182;7.650;2023-07-02T01:24:57;19.70;76.20
12704;DHT22;6416;52.182;7.650;2023-07-02T01:27:23;19.70;76.10
12704;DHT22;6416;52.182;7.650;2023-07-02T01:29:52;19.70;76.30
12704;DHT22;6416;52.182;7.650;2023-07-02T01:32:17;19.60;76.30
12704;DHT22;6416;52.182;7.650;2023-07-02T01:34:43;19.60;76.30
12704;DHT22;6416;52.182;7.650;2023-07-02T01:37:08;19.60;76.30
12704;DHT22;6416;52.182;7.650;2023-07-02T01:39:34;19.70;76.50
12704;DHT22;6416;52.182;7.650;2023-07-02T01:42:13;19.70;76.50
12704;DHT22;6416;52.182;7.650;2023-07-02T01:44:39;19.70;76.60
12704;DHT22;6416;52.182;7.650;2023-07-02T01:47:05;19.70;76.50
12704;DHT22;6416;52.182;7.650;2023-07-02T01:49:30;19.70;76.70
12704;DHT22;6416;52.182;7.650;2023-07-02T01:51:57;19.70;76.50
12704;DHT22;6416;52.182;7.650;2023-07-02T01:54:24;19.70;76.60
12704;DHT22;6416;52.182;7.650;2023-07-02T01:56:50;19.70;76.70
12704;DHT22;6416;52.182;7.650;2023-07-02T01:59:16;19.80;76.80
12704;DHT22;6416;52.182;7.650;2023-07-02T02:01:41;19.70;76.70
12704;DHT22;6416;52.182;7.650;2023-07-02T02:04:07;19.70;76.90
12704;DHT22;6416;52.182;7.650;2023-07-02T02:06:33;19.70;76.90
12704;DHT22;6416;52.182;7.650;2023-07-02T02:08:59;19.80;77.00
12704;DHT22;6416;52.182;7.650;2023-07-02T02:11:25;19.70;77.00
12704;DHT22;6416;52.182;7.650;2023-07-02T02:13:50;19.80;77.20
12704;DHT22;6416;52.182;7.650;2023-07-02T02:16:16;19.80;77.30
12704;DHT22;6416;52.182;7.650;2023-07-02T02:18:41;19.80;77.40
12704;DHT22;6416;52.182;7.650;2023-07-02T02:21:07;19.80;77.50
12704;DHT22;6416;52.182;7.650;2023-07-02T02:23:32;19.80;77.60
12704;DHT22;6416;52.182;7.650;2023-07-02T02:25:58;19.80;77.60
12704;DHT22;6416;52.182;7.650;2023-07-02T02:28:23;19.80;77.10
12704;DHT22;6416;52.182;7.650;2023-07-02T02:30:49;19.80;76.10
12704;DHT22;6416;52.182;7.650;2023-07-02T02:33:14;19.80;75.40
12704;DHT22;6416;52.182;7.650;2023-07-02T02:35:40;19.80;74.90
12704;DHT22;6416;52.182;7.650;2023-07-02T02:38:05;19.80;74.70
12704;DHT22;6416;52.182;7.650;2023-07-02T02:40:31;19.70;74.50
12704;DHT22;6416;52.182;7.650;2023-07-02T02:42:56;19.70;74.30
12704;DHT22;6416;52.182;7.650;2023-07-02T02:45:22;19.70;74.20
12704;DHT22;6416;52.182;7.650;2023-07-02T02:47:47;19.60;74.20
12704;DHT22;6416;52.182;7.650;2023-07-02T02:50:13;19.60;74.30
12704;DHT22;6416;52.182;7.650;2023-07-02T02:52:39;19.50;74.30
12704;DHT22;6416;52.182;7.650;2023-07-02T02:55:06;19.50;74.50
12704;DHT22;6416;52.182;7.650;2023-07-02T02:57:33;19.50;74.50
12704;DHT22;6416;52.182;7.650;2023-07-02T02:59:58;19.50;74.60
12704;DHT22;6416;52.182;7.650;2023-07-02T03:02:24;19.40;74.60
12704;DHT22;6416;52.182;7.650;2023-07-02T03:04:50;19.40;74.60
12704;DHT22;6416;52.182;7.650;2023-07-02T03:07:16;19.40;74.70
12704;DHT22;6416;52.182;7.650;2023-07-02T03:09:41;19.40;74.70
12704;DHT22;6416;52.182;7.650;2023-07-02T03:12:07;19.40;74.70
12704;DHT22;6416;52.182;7.650;2023-07-02T03:14:33;19.30;74.60
12704;DHT22;6416;52.182;7.650;2023-07-02T03:16:58;19.30;74.60
12704;DHT22;6416;52.182;7.650;2023-07-02T03:19:24;19.30;74.60
12704;DHT22;6416;52.182;7.650;2023-07-02T03:21:50;19.30;74.70
12704;DHT22;6416;52.182;7.650;2023-07-02T03:24:15;19.30;74.70
12704;DHT22;6416;52.182;7.650;2023-07-02T03:26:41;19.30;74.80
12704;DHT22;6416;52.182;7.650;2023-07-02T03:29:06;19.20;74.80
12704;DHT22;6416;52.182;7.650;2023-07-02T03:31:32;19.20;74.90
12704;DHT22;6416;52.182;7.650;2023-07-02T03:33:57;19.20;75.00
12704;DHT22;6416;52.182;7.650;2023-07-02T03:36:23;19.20;75.00
12704;DHT22;6416;52.182;7.650;2023-07-02T03:38:48;19.20;74.90
12704;DHT22;6416;52.182;7.650;2023-07-02T03:41:14;19.20;74.90
12704;DHT22;6416;52.182;7.650;2023-07-02T03:43:39;19.20;74.90
12704;DHT22;6416;52.182;7.650;2023-07-02T03:46:05;19.20;74.80
12704;DHT22;6416;52.182;7.650;2023-07-02T03:48:30;19.10;74.80
12704;DHT22;6416;52.182;7.650;2023-07-02T03:50:56;19.10;74.80
12704;DHT22;6416;52.182;7.650;2023-07-02T03:53:21;19.10;74.70
12704;DHT22;6416;52.182;7.650;2023-07-02T03:55:47;19.10;74.70
12704;DHT22;6416;52.182;7.650;2023-07-02T03:58:12;19.10;74.70
12704;DHT22;6416;52.182;7.650;2023-07-02T04:00:38;19.00;74.70
12704;DHT22;6416;52.182;7.650;2023-07-02T04:03:03;19.00;74.80
12704;DHT22;6416;52.182;7.650;2023-07-02T04:05:28;19.00;74.80
12704;DHT22;6416;52.182;7.650;2023-07-02T04:07:54;19.00;75.50
12704;DHT22;6416;52.182;7.650;2023-07-02T04:10:20;19.00;74.80
12704;DHT22;6416;52.182;7.650;2023-07-02T04:12:45;19.00;74.80
12704;DHT22;6416;52.182;7.650;2023-07-02T04:15:11;19.00;74.60
12704;DHT22;6416;52.182;7.650;2023-07-02T04:17:36;19.00;74.50
12704;DHT22;6416;52.182;7.650;2023-07-02T04:20:02;18.90;74.40
12704;DHT22;6416;52.182;7.650;2023-07-02T04:22:27;18.90;74.30
12704;DHT22;6416;52.182;7.650;2023-07-02T04:24:53;18.90;74.10
12704;DHT22;6416;52.182;7.650;2023-07-02T04:27:18;18.80;74.00
12704;DHT22;6416;52.182;7.650;2023-07-02T04:29:44;18.80;74.00
12704;DHT22;6416;52.182;7.650;2023-07-02T04:32:10;18.80;74.10
12704;DHT22;6416;52.182;7.650;2023-07-02T04:34:35;18.70;74.10
12704;DHT22;6416;52.182;7.650;2023-07-02T04:37:01;18.70;74.30
12704;DHT22;6416;52.182;7.650;2023-07-02T04:39:26;18.70;74.30
12704;DHT22;6416;52.182;7.650;2023-07-02T04:41:52;18.70;74.50
12704;DHT22;6416;52.182;7.650;2023-07-02T04:44:17;18.70;74.60
12704;DHT22;6416;52.182;7.650;2023-07-02T04:46:43;18.80;74.80
12704;DHT22;6416;52.182;7.650;2023-07-02T04:49:08;18.80;74.80
12704;DHT22;6416;52.182;7.650;2023-07-02T04:51:34;18.90;75.00
12704;DHT22;6416;52.182;7.650;2023-07-02T04:53:59;19.10;75.30
12704;DHT22;6416;52.182;7.650;2023-07-02T04:56:25;19.20;75.40
12704;DHT22;6416;52.182;7.650;2023-07-02T04:58:50;19.40;75.40
12704;DHT22;6416;52.182;7.650;2023-07-02T05:01:15;19.50;75.20
12704;DHT22;6416;52.182;7.650;2023-07-02T05:03:41;19.80;75.10
12704;DHT22;6416;52.182;7.650;2023-07-02T05:06:06;19.90;74.90
12704;DHT22;6416;52.182;7.650;2023-07-02T05:08:32;20.00;74.60
12704;DHT22;6416;52.182;7.650;2023-07-02T05:10:57;20.20;74.30
12704;DHT22;6416;52.182;7.650;2023-07-02T05:13:23;20.40;73.90
12704;DHT22;6416;52.182;7.650;2023-07-02T05:15:48;20.60;73.70
12704;DHT22;6416;52.182;7.650;2023-07-02T05:18:14;20.80;73.30
12704;DHT22;6416;52.182;7.650;2023-07-02T05:20:39;21.00;73.00
12704;DHT22;6416;52.182;7.650;2023-07-02T05:23:05;21.10;72.20
12704;DHT22;6416;52.182;7.650;2023-07-02T05:25:30;21.30;71.90
12704;DHT22;6416;52.182;7.650;2023-07-02T05:27:56;21.50;71.60
12704;DHT22;6416;52.182;7.650;2023-07-02T05:30:21;21.60;70.20
12704;DHT22;6416;52.182;7.650;2023-07-02T05:32:47;21.80;69.80
12704;DHT22;6416;52.182;7.650;2023-07-02T05:35:12;21.90;70.30
12704;DHT22;6416;52.182;7.650;2023-07-02T05:37:38;22.10;69.80
12704;DHT22;6416;52.182;7.650;2023-07-02T05:40:04;22.20;69.50
12704;DHT22;6416;52.182;7.650;2023-07-02T05:42:29;22.30;68.80
12704;DHT22;6416;52.182;7.650;2023-07-02T05:44:55;22.50;68.80
12704;DHT22;6416;52.182;7.650;2023-07-02T05:47:20;22.60;68.60
12704;DHT22;6416;52.182;7.650;2023-07-02T05:49:46;22.80;68.70
12704;DHT22;6416;52.182;7.650;2023-07-02T05:52:11;22.90;67.90
12704;DHT22;6416;52.182;7.650;2023-07-02T05:54:40;23.00;67.20
12704;DHT22;6416;52.182;7.650;2023-07-02T05:57:06;23.20;66.20
12704;DHT22;6416;52.182;7.650;2023-07-02T05:59:31;23.30;66.20
12704;DHT22;6416;52.182;7.650;2023-07-02T06:01:57;23.40;66.40
12704;DHT22;6416;52.182;7.650;2023-07-02T06:04:22;23.50;65.10
12704;DHT22;6416;52.182;7.650;2023-07-02T06:06:48;23.70;65.40
12704;DHT22;6416;52.182;7.650;2023-07-02T06:09:13;23.80;65.50
12704;DHT22;6416;52.182;7.650;2023-07-02T06:11:39;23.90;65.00
12704;DHT22;6416;52.182;7.650;2023-07-02T06:14:04;24.10;64.10
12704;DHT22;6416;52.182;7.650;2023-07-02T06:16:30;24.20;63.60
12704;DHT22;6416;52.182;7.650;2023-07-02T06:18:55;24.30;63.30
12704;DHT22;6416;52.182;7.650;2023-07-02T06:21:20;24.60;63.30
12704;DHT22;6416;52.182;7.650;2023-07-02T06:23:46;24.70;62.00
12704;DHT22;6416;52.182;7.650;2023-07-02T06:26:11;24.90;62.90
12704;DHT22;6416;52.182;7.650;2023-07-02T06:28:38;25.10;59.60
12704;DHT22;6416;52.182;7.650;2023-07-02T06:31:04;25.30;59.70
12704;DHT22;6416;52.182;7.650;2023-07-02T06:33:29;25.50;60.30
12704;DHT22;6416;52.182;7.650;2023-07-02T06:35:55;25.70;59.50
12704;DHT22;6416;52.182;7.650;2023-07-02T06:38:20;25.90;59.50
12704;DHT22;6416;52.182;7.650;2023-07-02T06:40:45;26.10;59.00
12704;DHT22;6416;52.182;7.650;2023-07-02T06:43:11;26.30;58.90
12704;DHT22;6416;52.182;7.650;2023-07-02T06:45:36;26.50;58.50
12704;DHT22;6416;52.182;7.650;2023-07-02T06:48:02;26.70;59.10
12704;DHT22;6416;52.182;7.650;2023-07-02T06:50:27;26.90;58.00
12704;DHT22;6416;52.182;7.650;2023-07-02T06:52:53;27.20;58.00
12704;DHT22;6416;52.182;7.650;2023-07-02T06:55:18;27.40;57.00
12704;DHT22;6416;52.182;7.650;2023-07-02T06:57:44;27.70;57.40
12704;DHT22;6416;52.182;7.650;2023-07-02T07:00:14;27.90;56.60
12704;DHT22;6416;52.182;7.650;2023-07-02T07:02:39;28.20;53.20
12704;DHT22;6416;52.182;7.650;2023-07-02T07:05:05;28.40;54.40
12704;DHT22;6416;52.182;7.650;2023-07-02T07:07:31;28.60;53.80
12704;DHT22;6416;52.182;7.650;2023-07-02T07:09:57;28.80;53.00
12704;DHT22;6416;52.182;7.650;2023-07-02T07:12:22;29.00;52.40
12704;DHT22;6416;52.182;7.650;2023-07-02T07:14:48;29.10;51.50
12704;DHT22;6416;52.182;7.650;2023-07-02T07:17:13;29.30;50.50
12704;DHT22;6416;52.182;7.650;2023-07-02T07:19:39;29.40;49.00
12704;DHT22;6416;52.182;7.650;2023-07-02T07:22:04;29.50;49.00
12704;DHT22;6416;52.182;7.650;2023-07-02T07:24:30;29.60;48.00
12704;DHT22;6416;52.182;7.650;2023-07-02T07:26:55;29.70;47.80
12704;DHT22;6416;52.182;7.650;2023-07-02T07:29:22;29.70;47.40
12704;DHT22;6416;52.182;7.650;2023-07-02T07:31:47;29.80;47.10
12704;DHT22;6416;52.182;7.650;2023-07-02T07:34:13;30.00;46.50
12704;DHT22;6416;52.182;7.650;2023-07-02T07:36:38;30.10;46.80
12704;DHT22;6416;52.182;7.650;2023-07-02T07:39:04;30.20;45.90
12704;DHT22;6416;52.182;7.650;2023-07-02T07:41:29;30.30;46.50
12704;DHT22;6416;52.182;7.650;2023-07-02T07:43:55;30.40;45.50
12704;DHT22;6416;52.182;7.650;2023-07-02T07:46:20;30.60;46.00
12704;DHT22;6416;52.182;7.650;2023-07-02T07:48:46;30.70;45.50
12704;DHT22;6416;52.182;7.650;2023-07-02T07:51:11;30.90;44.30
12704;DHT22;6416;52.182;7.650;2023-07-02T07:53:39;30.80;43.20
12704;DHT22;6416;52.182;7.650;2023-07-02T07:56:05;30.70;42.40
12704;DHT22;6416;52.182;7.650;2023-07-02T07:58:31;30.50;41.90
12704;DHT22;6416;52.182;7.650;2023-07-02T08:00:56;30.00;40.00
12704;DHT22;6416;52.182;7.650;2023-07-02T08:03:22;29.90;41.40
12704;DHT22;6416;52.182;7.650;2023-07-02T08:05:47;30.00;40.50
12704;DHT22;6416;52.182;7.650;2023-07-02T08:08:13;30.10;41.20
12704;DHT22;6416;52.182;7.650;2023-07-02T08:10:38;30.20;41.00
12704;DHT22;6416;52.182;7.650;2023-07-02T08:13:04;30.30;40.90
12704;DHT22;6416;52.182;7.650;2023-07-02T08:15:29;30.40;41.70
12704;DHT22;6416;52.182;7.650;2023-07-02T08:17:55;30.50;41.40
12704;DHT22;6416;52.182;7.650;2023-07-02T08:20:20;30.50;41.40
12704;DHT22;6416;52.182;7.650;2023-07-02T08:22:46;30.50;41.80
12704;DHT22;6416;52.182;7.650;2023-07-02T08:25:11;30.60;41.80
12704;DHT22;6416;52.182;7.650;2023-07-02T08:27:37;30.80;42.10
12704;DHT22;6416;52.182;7.650;2023-07-02T08:30:02;31.00;41.40
12704;DHT22;6416;52.182;7.650;2023-07-02T08:32:28;31.30;41.70
12704;DHT22;6416;52.182;7.650;2023-07-02T08:34:53;31.60;41.60
12704;DHT22;6416;52.182;7.650;2023-07-02T08:37:20;32.00;40.10
12704;DHT22;6416;52.182;7.650;2023-07-02T08:39:48;32.30;39.70
12704;DHT22;6416;52.182;7.650;2023-07-02T08:42:13;32.50;39.90
12704;DHT22;6416;52.182;7.650;2023-07-02T08:44:39;32.80;39.00
12704;DHT22;6416;52.182;7.650;2023-07-02T08:47:05;33.00;39.20
12704;DHT22;6416;52.182;7.650;2023-07-02T08:49:31;33.30;38.00
12704;DHT22;6416;52.182;7.650;2023-07-02T08:51:57;33.40;36.10
12704;DHT22;6416;52.182;7.650;2023-07-02T08:54:23;33.40;35.30
12704;DHT22;6416;52.182;7.650;2023-07-02T08:56:48;33.30;35.40
12704;DHT22;6416;52.182;7.650;2023-07-02T08:59:14;33.30;35.60
12704;DHT22;6416;52.182;7.650;2023-07-02T09:01:49;33.20;34.70
12704;DHT22;6416;52.182;7.650;2023-07-02T09:06:41;33.10;33.80
12704;DHT22;6416;52.182;7.650;2023-07-02T09:09:07;33.00;34.90
12704;DHT22;6416;52.182;7.650;2023-07-02T09:11:34;32.80;34.50
12704;DHT22;6416;52.182;7.650;2023-07-02T09:14:00;32.80;34.40
12704;DHT22;6416;52.182;7.650;2023-07-02T09:16:26;32.90;35.10
12704;DHT22;6416;52.182;7.650;2023-07-02T09:21:21;33.00;33.50
12704;DHT22;6416;52.182;7.650;2023-07-02T09:23:47;33.00;33.90
12704;DHT22;6416;52.182;7.650;2023-07-02T09:26:22;32.90;33.60
12704;DHT22;6416;52.182;7.650;2023-07-02T09:28:47;32.80;33.60
12704;DHT22;6416;52.182;7.650;2023-07-02T09:31:13;32.50;33.80
12704;DHT22;6416;52.182;7.650;2023-07-02T09:33:38;32.30;33.90
12704;DHT22;6416;52.182;7.650;2023-07-02T09:36:05;32.20;34.50
12704;DHT22;6416;52.182;7.650;2023-07-02T09:38:30;32.20;35.10
12704;DHT22;6416;52.182;7.650;2023-07-02T09:40:56;32.20;35.50
12704;DHT22;6416;52.182;7.650;2023-07-02T09:43:23;32.20;34.90
12704;DHT22;6416;52.182;7.650;2023-07-02T09:45:50;32.20;35.00
12704;DHT22;6416;52.182;7.650;2023-07-02T09:48:17;32.20;34.60
12704;DHT22;6416;52.182;7.650;2023-07-02T09:50:47;32.20;33.80
12704;DHT22;6416;52.182;7.650;2023-07-02T09:53:14;32.10;33.60
12704;DHT22;6416;52.182;7.650;2023-07-02T09:55:41;32.10;33.50
12704;DHT22;6416;52.182;7.650;2023-07-02T09:58:07;32.00;33.50
12704;DHT22;6416;52.182;7.650;2023-07-02T10:00:33;31.90;33.00
12704;DHT22;6416;52.182;7.650;2023-07-02T10:02:58;31.90;33.70
12704;DHT22;6416;52.182;7.650;2023-07-02T10:05:32;31.90;32.70
12704;DHT22;6416;52.182;7.650;2023-07-02T10:08:11;31.80;32.10
12704;DHT22;6416;52.182;7.650;2023-07-02T10:10:37;31.60;32.80
12704;DHT22;6416;52.182;7.650;2023-07-02T10:13:02;31.40;32.60
12704;DHT22;6416;52.182;7.650;2023-07-02T10:15:29;31.30;33.30
12704;DHT22;6416;52.182;7.650;2023-07-02T10:17:56;31.20;34.00
12704;DHT22;6416;52.182;7.650;2023-07-02T10:20:38;31.10;33.90
12704;DHT22;6416;52.182;7.650;2023-07-02T10:23:08;31.00;33.40
12704;DHT22;6416;52.182;7.650;2023-07-02T10:25:37;31.00;34.70
12704;DHT22;6416;52.182;7.650;2023-07-02T10:28:20;31.10;35.40
12704;DHT22;6416;52.182;7.650;2023-07-02T10:30:46;31.20;34.80
12704;DHT22;6416;52.182;7.650;2023-07-02T10:33:16;31.30;34.40
12704;DHT22;6416;52.182;7.650;2023-07-02T10:35:44;31.30;34.40
12704;DHT22;6416;52.182;7.650;2023-07-02T10:38:19;31.20;33.70
12704;DHT22;6416;52.182;7.650;2023-07-02T10:40:45;31.10;32.60
12704;DHT22;6416;52.182;7.650;2023-07-02T10:43:10;31.00;34.10
12704;DHT22;6416;52.182;7.650;2023-07-02T10:45:36;30.90;33.60
12704;DHT22;6416;52.182;7.650;2023-07-02T10:48:03;30.80;33.80
12704;DHT22;6416;52.182;7.650;2023-07-02T10:50:30;30.80;34.50
12704;DHT22;6416;52.182;7.650;2023-07-02T10:52:56;31.00;35.00
12704;DHT22;6416;52.182;7.650;2023-07-02T10:55:23;31.20;35.50
12704;DHT22;6416;52.182;7.650;2023-07-02T10:57:49;31.60;35.20
12704;DHT22;6416;52.182;7.650;2023-07-02T11:00:15;31.80;34.00
12704;DHT22;6416;52.182;7.650;2023-07-02T11:02:41;31.90;32.60
12704;DHT22;6416;52.182;7.650;2023-07-02T11:05:07;31.70;32.60
12704;DHT22;6416;52.182;7.650;2023-07-02T11:07:33;31.60;32.50
12704;DHT22;6416;52.182;7.650;2023-07-02T11:09:59;31.50;32.60
12704;DHT22;6416;52.182;7.650;2023-07-02T11:12:31;31.40;32.80
12704;DHT22;6416;52.182;7.650;2023-07-02T11:15:10;31.50;32.20
12704;DHT22;6416;52.182;7.650;2023-07-02T11:17:36;31.60;31.30
12704;DHT22;6416;52.182;7.650;2023-07-02T11:20:01;31.80;32.70
12704;DHT22;6416;52.182;7.650;2023-07-02T11:22:33;31.90;32.20
12704;DHT22;6416;52.182;7.650;2023-07-02T11:25:12;31.90;32.40
12704;DHT22;6416;52.182;7.650;2023-07-02T11:27:38;32.00;32.80
12704;DHT22;6416;52.182;7.650;2023-07-02T11:30:04;32.10;31.70
12704;DHT22;6416;52.182;7.650;2023-07-02T11:32:30;32.20;32.00
12704;DHT22;6416;52.182;7.650;2023-07-02T11:34:56;32.10;31.70
12704;DHT22;6416;52.182;7.650;2023-07-02T11:37:21;32.00;31.40
12704;DHT22;6416;52.182;7.650;2023-07-02T11:39:47;31.90;31.80
12704;DHT22;6416;52.182;7.650;2023-07-02T11:42:12;31.90;31.30
12704;DHT22;6416;52.182;7.650;2023-07-02T11:44:38;31.90;31.80
12704;DHT22;6416;52.182;7.650;2023-07-02T11:47:04;32.10;32.20
12704;DHT22;6416;52.182;7.650;2023-07-02T11:49:30;32.50;33.50
12704;DHT22;6416;52.182;7.650;2023-07-02T11:51:55;32.70;32.40
12704;DHT22;6416;52.182;7.650;2023-07-02T11:54:21;32.80;31.60
12704;DHT22;6416;52.182;7.650;2023-07-02T11:56:47;32.80;30.60
12704;DHT22;6416;52.182;7.650;2023-07-02T11:59:14;32.70;30.30
12704;DHT22;6416;52.182;7.650;2023-07-02T12:01:39;32.50;30.40
12704;DHT22;6416;52.182;7.650;2023-07-02T12:04:04;32.50;30.90
12704;DHT22;6416;52.182;7.650;2023-07-02T12:06:30;32.60;31.00
12704;DHT22;6416;52.182;7.650;2023-07-02T12:08:56;32.80;30.40
12704;DHT22;6416;52.182;7.650;2023-07-02T12:11:21;33.00;30.00
12704;DHT22;6416;52.182;7.650;2023-07-02T12:13:46;33.00;28.90
12704;DHT22;6416;52.182;7.650;2023-07-02T12:16:12;33.00;28.40
12704;DHT22;6416;52.182;7.650;2023-07-02T12:18:37;32.80;28.80
12704;DHT22;6416;52.182;7.650;2023-07-02T12:21:03;32.70;28.90
12704;DHT22;6416;52.182;7.650;2023-07-02T12:23:28;32.50;29.00
12704;DHT22;6416;52.182;7.650;2023-07-02T12:25:54;32.30;29.10
12704;DHT22;6416;52.182;7.650;2023-07-02T12:28:19;32.20;29.30
12704;DHT22;6416;52.182;7.650;2023-07-02T12:30:45;32.20;29.40
12704;DHT22;6416;52.182;7.650;2023-07-02T12:33:10;32.30;29.60
12704;DHT22;6416;52.182;7.650;2023-07-02T12:35:36;32.40;29.60
12704;DHT22;6416;52.182;7.650;2023-07-02T12:38:01;32.60;29.70
12704;DHT22;6416;52.182;7.650;2023-07-02T12:40:27;32.80;29.40
12704;DHT22;6416;52.182;7.650;2023-07-02T12:42:52;33.00;29.20
12704;DHT22;6416;52.182;7.650;2023-07-02T12:45:18;33.00;27.60
12704;DHT22;6416;52.182;7.650;2023-07-02T12:47:43;33.00;28.20
12704;DHT22;6416;52.182;7.650;2023-07-02T12:50:10;33.00;28.70
12704;DHT22;6416;52.182;7.650;2023-07-02T12:52:36;33.10;28.50
12704;DHT22;6416;52.182;7.650;2023-07-02T12:55:01;33.10;28.10
12704;DHT22;6416;52.182;7.650;2023-07-02T12:57:28;33.00;28.10
12704;DHT22;6416;52.182;7.650;2023-07-02T12:59:54;32.90;28.10
12704;DHT22;6416;52.182;7.650;2023-07-02T13:02:20;32.80;27.70
12704;DHT22;6416;52.182;7.650;2023-07-02T13:04:46;32.60;27.70
12704;DHT22;6416;52.182;7.650;2023-07-02T13:07:12;32.40;27.50
12704;DHT22;6416;52.182;7.650;2023-07-02T13:09:37;32.30;27.50
12704;DHT22;6416;52.182;7.650;2023-07-02T13:12:03;32.10;27.80
12704;DHT22;6416;52.182;7.650;2023-07-02T13:14:28;31.90;27.70
12704;DHT22;6416;52.182;7.650;2023-07-02T13:16:54;31.70;27.70
12704;DHT22;6416;52.182;7.650;2023-07-02T13:19:19;31.50;28.00
12704;DHT22;6416;52.182;7.650;2023-07-02T13:21:45;31.30;28.40
12704;DHT22;6416;52.182;7.650;2023-07-02T13:24:11;31.10;28.40
12704;DHT22;6416;52.182;7.650;2023-07-02T13:26:36;31.00;28.60
12704;DHT22;6416;52.182;7.650;2023-07-02T13:29:02;30.80;28.70
12704;DHT22;6416;52.182;7.650;2023-07-02T13:31:30;30.60;29.00
12704;DHT22;6416;52.182;7.650;2023-07-02T13:33:56;30.50;28.90
12704;DHT22;6416;52.182;7.650;2023-07-02T13:36:21;30.30;28.00
12704;DHT22;6416;52.182;7.650;2023-07-02T13:38:46;30.10;28.60
12704;DHT22;6416;52.182;7.650;2023-07-02T13:41:12;29.90;29.40
12704;DHT22;6416;52.182;7.650;2023-07-02T13:43:38;29.80;29.70
12704;DHT22;6416;52.182;7.650;2023-07-02T13:46:03;29.70;30.00
12704;DHT22;6416;52.182;7.650;2023-07-02T13:48:29;29.60;30.20
12704;DHT22;6416;52.182;7.650;2023-07-02T13:50:54;29.70;30.60
12704;DHT22;6416;52.182;7.650;2023-07-02T13:53:20;29.60;30.60
12704;DHT22;6416;52.182;7.650;2023-07-02T13:55:45;29.60;30.00
12704;DHT22;6416;52.182;7.650;2023-07-02T13:58:11;29.50;30.20
12704;DHT22;6416;52.182;7.650;2023-07-02T14:00:36;29.40;30.10
12704;DHT22;6416;52.182;7.650;2023-07-02T14:03:02;29.30;31.10
12704;DHT22;6416;52.182;7.650;2023-07-02T14:05:28;29.30;30.50
12704;DHT22;6416;52.182;7.650;2023-07-02T14:07:53;29.20;30.70
12704;DHT22;6416;52.182;7.650;2023-07-02T14:10:19;29.20;31.00
12704;DHT22;6416;52.182;7.650;2023-07-02T14:12:45;29.10;31.00
12704;DHT22;6416;52.182;7.650;2023-07-02T14:15:10;29.10;31.10
12704;DHT22;6416;52.182;7.650;2023-07-02T14:17:36;29.10;31.20
12704;DHT22;6416;52.182;7.650;2023-07-02T14:20:02;29.00;31.50
12704;DHT22;6416;52.182;7.650;2023-07-02T14:22:28;29.10;31.90
12704;DHT22;6416;52.182;7.650;2023-07-02T14:24:53;29.10;31.20
12704;DHT22;6416;52.182;7.650;2023-07-02T14:27:19;29.10;30.40
12704;DHT22;6416;52.182;7.650;2023-07-02T14:29:44;29.00;31.00
12704;DHT22;6416;52.182;7.650;2023-07-02T14:32:10;29.00;31.10
12704;DHT22;6416;52.182;7.650;2023-07-02T14:34:35;28.90;30.70
12704;DHT22;6416;52.182;7.650;2023-07-02T14:37:02;28.90;30.60
12704;DHT22;6416;52.182;7.650;2023-07-02T14:39:28;28.80;30.00
12704;DHT22;6416;52.182;7.650;2023-07-02T14:41:53;28.70;30.50
12704;DHT22;6416;52.182;7.650;2023-07-02T14:44:19;28.60;30.90
12704;DHT22;6416;52.182;7.650;2023-07-02T14:46:44;28.50;30.80
12704;DHT22;6416;52.182;7.650;2023-07-02T14:49:10;28.40;31.50
12704;DHT22;6416;52.182;7.650;2023-07-02T14:51:35;28.40;30.60
12704;DHT22;6416;52.182;7.650;2023-07-02T14:54:01;28.30;30.90
12704;DHT22;6416;52.182;7.650;2023-07-02T14:56:27;28.20;30.50
12704;DHT22;6416;52.182;7.650;2023-07-02T14:58:52;28.10;30.50
12704;DHT22;6416;52.182;7.650;2023-07-02T15:01:18;28.10;30.50
12704;DHT22;6416;52.182;7.650;2023-07-02T15:03:43;28.10;30.50
12704;DHT22;6416;52.182;7.650;2023-07-02T15:06:17;28.00;31.10
12704;DHT22;6416;52.182;7.650;2023-07-02T15:08:43;27.90;31.50
12704;DHT22;6416;52.182;7.650;2023-07-02T15:11:10;27.80;31.50
12704;DHT22;6416;52.182;7.650;2023-07-02T15:13:37;27.80;31.70
12704;DHT22;6416;52.182;7.650;2023-07-02T15:16:03;27.80;31.50
12704;DHT22;6416;52.182;7.650;2023-07-02T15:18:28;27.70;31.20
12704;DHT22;6416;52.182;7.650;2023-07-02T15:20:54;27.70;31.20
12704;DHT22;6416;52.182;7.650;2023-07-02T15:23:20;27.70;31.30
12704;DHT22;6416;52.182;7.650;2023-07-02T15:26:05;27.60;31.60
12704;DHT22;6416;52.182;7.650;2023-07-02T15:28:30;27.60;31.90
12704;DHT22;6416;52.182;7.650;2023-07-02T15:31:02;27.60;31.70
12704;DHT22;6416;52.182;7.650;2023-07-02T15:33:28;27.60;31.70
12704;DHT22;6416;52.182;7.650;2023-07-02T15:35:54;27.50;31.80
12704;DHT22;6416;52.182;7.650;2023-07-02T15:38:19;27.50;32.10
12704;DHT22;6416;52.182;7.650;2023-07-02T15:40:48;27.50;32.10
12704;DHT22;6416;52.182;7.650;2023-07-02T15:43:14;27.50;32.10